sensor_id;sensor_type;location;lat;lon;timestamp;P1;durP1;ratioP1;P2;durP2;ratioP2
63016;SDS011;50274;45.640;11.756;2023-11-22T00:00:06;8.90;;;4.43;;
63016;SDS011;50274;45.640;11.756;2023-11-22T00:02:33;7.13;;;4.10;;
63016;SDS011;50274;45.640;11.756;2023-11-22T00:04:59;10.37;;;4.20;;
63016;SDS011;50274;45.640;11.756;2023-11-22T00:07:25;9.43;;;4.20;;
63016;SDS011;50274;45.640;11.756;2023-11-22T00:09:54;10.27;;;4.57;;
63016;SDS011;50274;45.640;11.756;2023-11-22T00:12:23;10.38;;;4.90;;
63016;SDS011;50274;45.640;11.756;2023-11-22T00:14:50;8.52;;;4.50;;
63016;SDS011;50274;45.640;11.756;2023-11-22T00:17:16;10.07;;;4.47;;
63016;SDS011;50274;45.640;11.756;2023-11-22T00:19:44;8.98;;;4.63;;
63016;SDS011;50274;45.640;11.756;2023-11-22T00:22:13;9.68;;;4.50;;
63016;SDS011;50274;45.640;11.756;2023-11-22T00:24:40;7.70;;;4.20;;
63016;SDS011;50274;45.640;11.756;2023-11-22T00:27:06;7.87;;;4.23;;
63016;SDS011;50274;45.640;11.756;2023-11-22T00:29:33;8.60;;;4.45;;
63016;SDS011;50274;45.640;11.756;2023-11-22T00:31:59;7.93;;;4.10;;
63016;SDS011;50274;45.640;11.756;2023-11-22T00:34:25;7.90;;;4.47;;
63016;SDS011;50274;45.640;11.756;2023-11-22T00:36:51;10.23;;;4.60;;
63016;SDS011;50274;45.640;11.756;2023-11-22T00:39:17;8.07;;;4.00;;
63016;SDS011;50274;45.640;11.756;2023-11-22T00:41:44;7.85;;;4.25;;
63016;SDS011;50274;45.640;11.756;2023-11-22T00:44:10;8.02;;;4.30;;
63016;SDS011;50274;45.640;11.756;2023-11-22T00:46:36;9.00;;;3.88;;
63016;SDS011;50274;45.640;11.756;2023-11-22T00:49:03;9.30;;;4.40;;
63016;SDS011;50274;45.640;11.756;2023-11-22T00:51:33;9.77;;;4.20;;
63016;SDS011;50274;45.640;11.756;2023-11-22T00:53:59;7.70;;;4.07;;
63016;SDS011;50274;45.640;11.756;2023-11-22T00:56:25;8.32;;;4.22;;
63016;SDS011;50274;45.640;11.756;2023-11-22T00:58:52;7.95;;;4.05;;
63016;SDS011;50274;45.640;11.756;2023-11-22T01:01:18;9.30;;;4.25;;
63016;SDS011;50274;45.640;11.756;2023-11-22T01:03:47;8.80;;;3.70;;
63016;SDS011;50274;45.640;11.756;2023-11-22T01:06:13;8.35;;;4.03;;
63016;SDS011;50274;45.640;11.756;2023-11-22T01:08:39;8.15;;;3.97;;
63016;SDS011;50274;45.640;11.756;2023-11-22T01:11:06;11.30;;;4.13;;
63016;SDS011;50274;45.640;11.756;2023-11-22T01:13:32;8.75;;;3.70;;
63016;SDS011;50274;45.640;11.756;2023-11-22T01:16:05;7.00;;;3.50;;
63016;SDS011;50274;45.640;11.756;2023-11-22T01:18:31;6.90;;;3.78;;
63016;SDS011;50274;45.640;11.756;2023-11-22T01:20:57;6.07;;;3.25;;
63016;SDS011;50274;45.640;11.756;2023-11-22T01:23:23;7.03;;;3.50;;
63016;SDS011;50274;45.640;11.756;2023-11-22T01:25:49;8.65;;;3.38;;
63016;SDS011;50274;45.640;11.756;2023-11-22T01:28:15;9.10;;;3.28;;
63016;SDS011;50274;45.640;11.756;2023-11-22T01:30:42;8.10;;;3.58;;
63016;SDS011;50274;45.640;11.756;2023-11-22T01:33:12;7.70;;;3.77;;
63016;SDS011;50274;45.640;11.756;2023-11-22T01:35:38;6.72;;;3.05;;
63016;SDS011;50274;45.640;11.756;2023-11-22T01:38:04;6.95;;;3.10;;
63016;SDS011;50274;45.640;11.756;2023-11-22T01:40:30;7.25;;;3.05;;
63016;SDS011;50274;45.640;11.756;2023-11-22T01:42:57;7.10;;;3.23;;
63016;SDS011;50274;45.640;11.756;2023-11-22T01:45:23;7.68;;;3.15;;
63016;SDS011;50274;45.640;11.756;2023-11-22T01:47:50;6.18;;;2.97;;
63016;SDS011;50274;45.640;11.756;2023-11-22T01:50:16;6.15;;;2.72;;
63016;SDS011;50274;45.640;11.756;2023-11-22T01:52:42;8.57;;;3.60;;
63016;SDS011;50274;45.640;11.756;2023-11-22T01:55:09;5.95;;;2.70;;
63016;SDS011;50274;45.640;11.756;2023-11-22T01:57:35;6.28;;;2.92;;
63016;SDS011;50274;45.640;11.756;2023-11-22T02:00:02;6.07;;;3.08;;
63016;SDS011;50274;45.640;11.756;2023-11-22T02:02:32;6.15;;;2.70;;
63016;SDS011;50274;45.640;11.756;2023-11-22T02:05:01;5.90;;;2.33;;
63016;SDS011;50274;45.640;11.756;2023-11-22T02:07:27;5.53;;;2.65;;
63016;SDS011;50274;45.640;11.756;2023-11-22T02:09:53;6.05;;;2.78;;
63016;SDS011;50274;45.640;11.756;2023-11-22T02:12:19;5.93;;;2.60;;
63016;SDS011;50274;45.640;11.756;2023-11-22T02:14:45;6.37;;;2.77;;
63016;SDS011;50274;45.640;11.756;2023-11-22T02:17:11;5.88;;;2.55;;
63016;SDS011;50274;45.640;11.756;2023-11-22T02:19:37;7.32;;;3.00;;
63016;SDS011;50274;45.640;11.756;2023-11-22T02:22:03;5.25;;;2.38;;
63016;SDS011;50274;45.640;11.756;2023-11-22T02:24:29;4.80;;;2.20;;
63016;SDS011;50274;45.640;11.756;2023-11-22T02:26:55;5.40;;;2.70;;
63016;SDS011;50274;45.640;11.756;2023-11-22T02:29:21;5.67;;;2.50;;
63016;SDS011;50274;45.640;11.756;2023-11-22T02:31:47;6.05;;;2.60;;
63016;SDS011;50274;45.640;11.756;2023-11-22T02:34:13;5.13;;;2.13;;
63016;SDS011;50274;45.640;11.756;2023-11-22T02:36:43;5.78;;;2.20;;
63016;SDS011;50274;45.640;11.756;2023-11-22T02:39:09;5.32;;;2.33;;
63016;SDS011;50274;45.640;11.756;2023-11-22T02:41:35;4.87;;;2.20;;
63016;SDS011;50274;45.640;11.756;2023-11-22T02:44:01;5.40;;;2.00;;
63016;SDS011;50274;45.640;11.756;2023-11-22T02:46:27;5.28;;;2.45;;
63016;SDS011;50274;45.640;11.756;2023-11-22T02:48:56;5.75;;;2.40;;
63016;SDS011;50274;45.640;11.756;2023-11-22T02:51:21;6.83;;;2.20;;
63016;SDS011;50274;45.640;11.756;2023-11-22T02:53:47;5.77;;;2.53;;
63016;SDS011;50274;45.640;11.756;2023-11-22T02:56:15;5.80;;;2.40;;
63016;SDS011;50274;45.640;11.756;2023-11-22T02:58:41;6.78;;;2.50;;
63016;SDS011;50274;45.640;11.756;2023-11-22T03:01:07;6.97;;;2.42;;
63016;SDS011;50274;45.640;11.756;2023-11-22T03:03:33;4.83;;;1.87;;
63016;SDS011;50274;45.640;11.756;2023-11-22T03:05:59;5.38;;;2.40;;
63016;SDS011;50274;45.640;11.756;2023-11-22T03:08:25;5.45;;;2.60;;
63016;SDS011;50274;45.640;11.756;2023-11-22T03:10:52;5.80;;;2.20;;
63016;SDS011;50274;45.640;11.756;2023-11-22T03:13:18;6.10;;;2.50;;
63016;SDS011;50274;45.640;11.756;2023-11-22T03:15:44;6.07;;;2.47;;
63016;SDS011;50274;45.640;11.756;2023-11-22T03:18:10;5.18;;;2.05;;
63016;SDS011;50274;45.640;11.756;2023-11-22T03:20:36;5.75;;;2.10;;
63016;SDS011;50274;45.640;11.756;2023-11-22T03:23:03;4.83;;;2.17;;
63016;SDS011;50274;45.640;11.756;2023-11-22T03:25:29;5.70;;;2.30;;
63016;SDS011;50274;45.640;11.756;2023-11-22T03:27:56;6.32;;;2.35;;
63016;SDS011;50274;45.640;11.756;2023-11-22T03:30:22;6.25;;;2.83;;
63016;SDS011;50274;45.640;11.756;2023-11-22T03:32:48;6.75;;;2.80;;
63016;SDS011;50274;45.640;11.756;2023-11-22T03:35:15;8.00;;;2.50;;
63016;SDS011;50274;45.640;11.756;2023-11-22T03:37:42;7.35;;;2.80;;
63016;SDS011;50274;45.640;11.756;2023-11-22T03:40:08;7.15;;;2.50;;
63016;SDS011;50274;45.640;11.756;2023-11-22T03:42:37;6.35;;;2.22;;
63016;SDS011;50274;45.640;11.756;2023-11-22T03:45:04;5.68;;;2.25;;
63016;SDS011;50274;45.640;11.756;2023-11-22T03:47:31;6.43;;;2.60;;
63016;SDS011;50274;45.640;11.756;2023-11-22T03:49:58;7.18;;;2.80;;
63016;SDS011;50274;45.640;11.756;2023-11-22T03:52:24;7.25;;;2.53;;
63016;SDS011;50274;45.640;11.756;2023-11-22T03:54:52;6.38;;;2.60;;
63016;SDS011;50274;45.640;11.756;2023-11-22T03:57:18;6.50;;;2.53;;
63016;SDS011;50274;45.640;11.756;2023-11-22T03:59:44;7.10;;;2.70;;
63016;SDS011;50274;45.640;11.756;2023-11-22T04:02:09;6.55;;;2.13;;
63016;SDS011;50274;45.640;11.756;2023-11-22T04:04:36;7.17;;;2.30;;
63016;SDS011;50274;45.640;11.756;2023-11-22T04:07:04;8.60;;;3.10;;
63016;SDS011;50274;45.640;11.756;2023-11-22T04:09:31;6.90;;;2.92;;
63016;SDS011;50274;45.640;11.756;2023-11-22T04:11:57;7.05;;;2.60;;
63016;SDS011;50274;45.640;11.756;2023-11-22T04:14:23;7.78;;;2.63;;
63016;SDS011;50274;45.640;11.756;2023-11-22T04:16:52;8.03;;;2.73;;
63016;SDS011;50274;45.640;11.756;2023-11-22T04:19:18;8.40;;;2.80;;
63016;SDS011;50274;45.640;11.756;2023-11-22T04:21:44;8.73;;;3.22;;
63016;SDS011;50274;45.640;11.756;2023-11-22T04:24:09;7.27;;;2.80;;
63016;SDS011;50274;45.640;11.756;2023-11-22T04:26:37;8.67;;;3.20;;
63016;SDS011;50274;45.640;11.756;2023-11-22T04:29:03;7.82;;;3.33;;
63016;SDS011;50274;45.640;11.756;2023-11-22T04:31:29;6.97;;;3.03;;
63016;SDS011;50274;45.640;11.756;2023-11-22T04:33:56;7.65;;;3.35;;
63016;SDS011;50274;45.640;11.756;2023-11-22T04:36:23;8.95;;;3.17;;
63016;SDS011;50274;45.640;11.756;2023-11-22T04:38:48;9.17;;;3.40;;
63016;SDS011;50274;45.640;11.756;2023-11-22T04:41:15;8.55;;;3.40;;
63016;SDS011;50274;45.640;11.756;2023-11-22T04:43:41;7.75;;;3.60;;
63016;SDS011;50274;45.640;11.756;2023-11-22T04:46:09;7.63;;;3.42;;
63016;SDS011;50274;45.640;11.756;2023-11-22T04:48:35;6.80;;;2.80;;
63016;SDS011;50274;45.640;11.756;2023-11-22T04:51:03;7.88;;;3.15;;
63016;SDS011;50274;45.640;11.756;2023-11-22T04:53:29;7.20;;;2.58;;
63016;SDS011;50274;45.640;11.756;2023-11-22T04:55:54;6.50;;;2.93;;
63016;SDS011;50274;45.640;11.756;2023-11-22T04:58:20;6.30;;;2.55;;
63016;SDS011;50274;45.640;11.756;2023-11-22T05:00:46;7.03;;;2.67;;
63016;SDS011;50274;45.640;11.756;2023-11-22T05:03:12;6.28;;;2.40;;
63016;SDS011;50274;45.640;11.756;2023-11-22T05:05:38;6.25;;;2.97;;
63016;SDS011;50274;45.640;11.756;2023-11-22T05:08:04;7.13;;;3.30;;
63016;SDS011;50274;45.640;11.756;2023-11-22T05:10:30;6.90;;;3.20;;
63016;SDS011;50274;45.640;11.756;2023-11-22T05:12:55;6.40;;;2.90;;
63016;SDS011;50274;45.640;11.756;2023-11-22T05:15:24;6.43;;;2.75;;
63016;SDS011;50274;45.640;11.756;2023-11-22T05:17:51;7.37;;;3.10;;
63016;SDS011;50274;45.640;11.756;2023-11-22T05:20:17;8.05;;;3.45;;
63016;SDS011;50274;45.640;11.756;2023-11-22T05:22:43;6.72;;;3.40;;
63016;SDS011;50274;45.640;11.756;2023-11-22T05:25:08;7.63;;;3.60;;
63016;SDS011;50274;45.640;11.756;2023-11-22T05:27:34;7.88;;;3.38;;
63016;SDS011;50274;45.640;11.756;2023-11-22T05:30:00;7.40;;;3.80;;
63016;SDS011;50274;45.640;11.756;2023-11-22T05:32:27;6.97;;;3.60;;
63016;SDS011;50274;45.640;11.756;2023-11-22T05:34:53;8.20;;;3.42;;
63016;SDS011;50274;45.640;11.756;2023-11-22T05:37:20;6.88;;;3.30;;
63016;SDS011;50274;45.640;11.756;2023-11-22T05:39:45;6.87;;;2.90;;
63016;SDS011;50274;45.640;11.756;2023-11-22T05:42:11;5.28;;;2.88;;
63016;SDS011;50274;45.640;11.756;2023-11-22T05:44:37;6.97;;;3.30;;
63016;SDS011;50274;45.640;11.756;2023-11-22T05:47:03;6.07;;;3.50;;
63016;SDS011;50274;45.640;11.756;2023-11-22T05:49:29;6.93;;;2.38;;
63016;SDS011;50274;45.640;11.756;2023-11-22T05:51:54;6.43;;;2.60;;
63016;SDS011;50274;45.640;11.756;2023-11-22T05:54:20;6.05;;;2.30;;
63016;SDS011;50274;45.640;11.756;2023-11-22T05:56:46;7.93;;;2.22;;
63016;SDS011;50274;45.640;11.756;2023-11-22T05:59:12;6.53;;;2.20;;
63016;SDS011;50274;45.640;11.756;2023-11-22T06:01:38;5.75;;;2.35;;
63016;SDS011;50274;45.640;11.756;2023-11-22T06:04:04;5.97;;;2.28;;
63016;SDS011;50274;45.640;11.756;2023-11-22T06:06:30;7.23;;;2.40;;
63016;SDS011;50274;45.640;11.756;2023-11-22T06:08:56;6.45;;;2.85;;
63016;SDS011;50274;45.640;11.756;2023-11-22T06:11:22;6.32;;;2.97;;
63016;SDS011;50274;45.640;11.756;2023-11-22T06:13:48;6.05;;;3.10;;
63016;SDS011;50274;45.640;11.756;2023-11-22T06:16:14;7.27;;;3.50;;
63016;SDS011;50274;45.640;11.756;2023-11-22T06:18:39;7.72;;;3.28;;
63016;SDS011;50274;45.640;11.756;2023-11-22T06:21:06;6.57;;;3.17;;
63016;SDS011;50274;45.640;11.756;2023-11-22T06:23:32;6.95;;;3.72;;
63016;SDS011;50274;45.640;11.756;2023-11-22T06:25:58;7.82;;;4.03;;
63016;SDS011;50274;45.640;11.756;2023-11-22T06:28:24;10.40;;;5.60;;
63016;SDS011;50274;45.640;11.756;2023-11-22T06:30:49;9.88;;;5.95;;
63016;SDS011;50274;45.640;11.756;2023-11-22T06:33:15;9.77;;;5.68;;
63016;SDS011;50274;45.640;11.756;2023-11-22T06:35:41;11.20;;;6.60;;
63016;SDS011;50274;45.640;11.756;2023-11-22T06:38:07;11.20;;;6.20;;
63016;SDS011;50274;45.640;11.756;2023-11-22T06:40:34;10.82;;;5.85;;
63016;SDS011;50274;45.640;11.756;2023-11-22T06:42:59;9.73;;;6.20;;
63016;SDS011;50274;45.640;11.756;2023-11-22T06:45:25;11.17;;;7.30;;
63016;SDS011;50274;45.640;11.756;2023-11-22T06:47:51;12.93;;;7.43;;
63016;SDS011;50274;45.640;11.756;2023-11-22T06:50:17;13.00;;;6.93;;
63016;SDS011;50274;45.640;11.756;2023-11-22T06:52:43;11.23;;;6.77;;
63016;SDS011;50274;45.640;11.756;2023-11-22T06:55:11;12.23;;;7.30;;
63016;SDS011;50274;45.640;11.756;2023-11-22T06:57:37;10.23;;;6.70;;
63016;SDS011;50274;45.640;11.756;2023-11-22T07:00:04;10.10;;;6.28;;
63016;SDS011;50274;45.640;11.756;2023-11-22T07:02:33;11.48;;;6.82;;
63016;SDS011;50274;45.640;11.756;2023-11-22T07:05:02;10.67;;;5.67;;
63016;SDS011;50274;45.640;11.756;2023-11-22T07:07:29;12.65;;;6.30;;
63016;SDS011;50274;45.640;11.756;2023-11-22T07:09:55;10.05;;;6.53;;
63016;SDS011;50274;45.640;11.756;2023-11-22T07:12:27;11.32;;;6.10;;
63016;SDS011;50274;45.640;11.756;2023-11-22T07:14:53;11.55;;;6.13;;
63016;SDS011;50274;45.640;11.756;2023-11-22T07:17:18;10.13;;;5.73;;
63016;SDS011;50274;45.640;11.756;2023-11-22T07:19:46;10.27;;;6.05;;
63016;SDS011;50274;45.640;11.756;2023-11-22T07:22:13;10.27;;;5.93;;
63016;SDS011;50274;45.640;11.756;2023-11-22T07:24:47;10.60;;;6.13;;
63016;SDS011;50274;45.640;11.756;2023-11-22T07:27:16;10.77;;;6.03;;
63016;SDS011;50274;45.640;11.756;2023-11-22T07:29:44;10.77;;;6.05;;
63016;SDS011;50274;45.640;11.756;2023-11-22T07:32:11;12.95;;;5.72;;
63016;SDS011;50274;45.640;11.756;2023-11-22T07:34:37;10.18;;;6.10;;
63016;SDS011;50274;45.640;11.756;2023-11-22T07:37:05;11.52;;;6.43;;
63016;SDS011;50274;45.640;11.756;2023-11-22T07:39:34;10.17;;;5.37;;
63016;SDS011;50274;45.640;11.756;2023-11-22T07:42:04;13.75;;;6.18;;
63016;SDS011;50274;45.640;11.756;2023-11-22T07:44:34;11.57;;;5.95;;
63016;SDS011;50274;45.640;11.756;2023-11-22T07:47:02;10.80;;;5.75;;
63016;SDS011;50274;45.640;11.756;2023-11-22T07:49:32;9.63;;;5.93;;
63016;SDS011;50274;45.640;11.756;2023-11-22T07:52:02;12.03;;;6.50;;
63016;SDS011;50274;45.640;11.756;2023-11-22T07:54:29;13.38;;;6.85;;
63016;SDS011;50274;45.640;11.756;2023-11-22T07:56:55;15.63;;;7.32;;
63016;SDS011;50274;45.640;11.756;2023-11-22T07:59:21;12.57;;;6.83;;
63016;SDS011;50274;45.640;11.756;2023-11-22T08:01:47;14.67;;;7.27;;
63016;SDS011;50274;45.640;11.756;2023-11-22T08:04:14;11.48;;;6.53;;
63016;SDS011;50274;45.640;11.756;2023-11-22T08:06:41;12.27;;;6.38;;
63016;SDS011;50274;45.640;11.756;2023-11-22T08:09:07;12.00;;;6.70;;
63016;SDS011;50274;45.640;11.756;2023-11-22T08:11:34;11.88;;;6.45;;
63016;SDS011;50274;45.640;11.756;2023-11-22T08:14:01;11.47;;;6.47;;
63016;SDS011;50274;45.640;11.756;2023-11-22T08:16:27;11.45;;;7.05;;
63016;SDS011;50274;45.640;11.756;2023-11-22T08:18:54;10.57;;;6.28;;
63016;SDS011;50274;45.640;11.756;2023-11-22T08:21:21;12.60;;;6.50;;
63016;SDS011;50274;45.640;11.756;2023-11-22T08:23:48;12.20;;;6.85;;
63016;SDS011;50274;45.640;11.756;2023-11-22T08:26:14;11.17;;;6.67;;
63016;SDS011;50274;45.640;11.756;2023-11-22T08:28:41;10.40;;;6.38;;
63016;SDS011;50274;45.640;11.756;2023-11-22T08:31:07;10.05;;;5.78;;
63016;SDS011;50274;45.640;11.756;2023-11-22T08:33:38;10.23;;;5.63;;
63016;SDS011;50274;45.640;11.756;2023-11-22T08:36:05;8.77;;;5.35;;
63016;SDS011;50274;45.640;11.756;2023-11-22T08:38:33;11.27;;;5.57;;
63016;SDS011;50274;45.640;11.756;2023-11-22T08:41:05;10.98;;;5.22;;
63016;SDS011;50274;45.640;11.756;2023-11-22T08:43:32;9.70;;;5.05;;
63016;SDS011;50274;45.640;11.756;2023-11-22T08:45:59;10.05;;;5.25;;
63016;SDS011;50274;45.640;11.756;2023-11-22T08:48:29;11.38;;;5.10;;
63016;SDS011;50274;45.640;11.756;2023-11-22T08:50:56;10.17;;;4.73;;
63016;SDS011;50274;45.640;11.756;2023-11-22T08:53:22;11.82;;;4.72;;
63016;SDS011;50274;45.640;11.756;2023-11-22T08:55:48;9.40;;;4.50;;
63016;SDS011;50274;45.640;11.756;2023-11-22T08:58:14;8.32;;;4.30;;
63016;SDS011;50274;45.640;11.756;2023-11-22T09:00:40;7.47;;;4.00;;
63016;SDS011;50274;45.640;11.756;2023-11-22T09:03:07;7.60;;;3.75;;
63016;SDS011;50274;45.640;11.756;2023-11-22T09:05:38;8.73;;;3.58;;
63016;SDS011;50274;45.640;11.756;2023-11-22T09:08:11;6.40;;;3.08;;
63016;SDS011;50274;45.640;11.756;2023-11-22T09:10:41;7.05;;;2.58;;
63016;SDS011;50274;45.640;11.756;2023-11-22T09:13:08;6.50;;;3.50;;
63016;SDS011;50274;45.640;11.756;2023-11-22T09:15:34;6.03;;;3.35;;
63016;SDS011;50274;45.640;11.756;2023-11-22T09:18:00;7.10;;;3.38;;
63016;SDS011;50274;45.640;11.756;2023-11-22T09:20:26;8.32;;;3.53;;
63016;SDS011;50274;45.640;11.756;2023-11-22T09:22:53;7.17;;;3.53;;
63016;SDS011;50274;45.640;11.756;2023-11-22T09:25:23;7.30;;;3.20;;
63016;SDS011;50274;45.640;11.756;2023-11-22T09:27:51;7.65;;;3.40;;
63016;SDS011;50274;45.640;11.756;2023-11-22T09:30:21;8.32;;;3.58;;
63016;SDS011;50274;45.640;11.756;2023-11-22T09:33:06;8.32;;;4.00;;
63016;SDS011;50274;45.640;11.756;2023-11-22T09:35:34;8.40;;;4.03;;
63016;SDS011;50274;45.640;11.756;2023-11-22T09:38:01;9.15;;;4.22;;
63016;SDS011;50274;45.640;11.756;2023-11-22T09:40:40;9.73;;;3.55;;
63016;SDS011;50274;45.640;11.756;2023-11-22T09:43:08;10.00;;;3.80;;
63016;SDS011;50274;45.640;11.756;2023-11-22T09:45:35;7.15;;;2.90;;
63016;SDS011;50274;45.640;11.756;2023-11-22T09:48:03;8.13;;;2.77;;
63016;SDS011;50274;45.640;11.756;2023-11-22T09:53:19;5.95;;;2.40;;
63016;SDS011;50274;45.640;11.756;2023-11-22T09:55:52;6.40;;;2.20;;
63016;SDS011;50274;45.640;11.756;2023-11-22T09:58:18;5.35;;;1.70;;
63016;SDS011;50274;45.640;11.756;2023-11-22T10:00:46;5.47;;;1.70;;
63016;SDS011;50274;45.640;11.756;2023-11-22T10:03:13;4.28;;;1.55;;
63016;SDS011;50274;45.640;11.756;2023-11-22T10:05:41;5.43;;;1.80;;
63016;SDS011;50274;45.640;11.756;2023-11-22T10:08:07;4.97;;;1.30;;
63016;SDS011;50274;45.640;11.756;2023-11-22T10:10:34;5.70;;;1.58;;
63016;SDS011;50274;45.640;11.756;2023-11-22T10:13:02;5.47;;;1.90;;
63016;SDS011;50274;45.640;11.756;2023-11-22T10:15:28;4.90;;;1.55;;
63016;SDS011;50274;45.640;11.756;2023-11-22T10:17:56;4.82;;;1.80;;
63016;SDS011;50274;45.640;11.756;2023-11-22T10:20:39;4.75;;;1.63;;
63016;SDS011;50274;45.640;11.756;2023-11-22T10:23:10;3.92;;;1.50;;
63016;SDS011;50274;45.640;11.756;2023-11-22T10:25:43;4.83;;;1.40;;
63016;SDS011;50274;45.640;11.756;2023-11-22T10:28:09;3.90;;;1.30;;
63016;SDS011;50274;45.640;11.756;2023-11-22T10:30:36;4.40;;;1.27;;
63016;SDS011;50274;45.640;11.756;2023-11-22T10:33:02;3.87;;;1.10;;
63016;SDS011;50274;45.640;11.756;2023-11-22T10:35:29;3.70;;;1.00;;
63016;SDS011;50274;45.640;11.756;2023-11-22T10:37:56;3.63;;;1.02;;
63016;SDS011;50274;45.640;11.756;2023-11-22T10:40:22;3.75;;;0.90;;
63016;SDS011;50274;45.640;11.756;2023-11-22T10:42:49;3.50;;;0.90;;
63016;SDS011;50274;45.640;11.756;2023-11-22T10:45:17;3.77;;;1.07;;
63016;SDS011;50274;45.640;11.756;2023-11-22T10:47:43;3.88;;;1.30;;
63016;SDS011;50274;45.640;11.756;2023-11-22T10:50:10;3.80;;;1.00;;
63016;SDS011;50274;45.640;11.756;2023-11-22T10:52:37;4.28;;;1.25;;
63016;SDS011;50274;45.640;11.756;2023-11-22T10:55:07;3.90;;;1.17;;
63016;SDS011;50274;45.640;11.756;2023-11-22T10:57:40;4.60;;;1.33;;
63016;SDS011;50274;45.640;11.756;2023-11-22T11:00:13;4.88;;;1.15;;
63016;SDS011;50274;45.640;11.756;2023-11-22T11:02:41;4.45;;;1.33;;
63016;SDS011;50274;45.640;11.756;2023-11-22T11:05:15;4.70;;;1.40;;
63016;SDS011;50274;45.640;11.756;2023-11-22T11:07:44;5.03;;;1.30;;
63016;SDS011;50274;45.640;11.756;2023-11-22T11:10:15;3.90;;;1.17;;
63016;SDS011;50274;45.640;11.756;2023-11-22T11:12:42;3.60;;;1.27;;
63016;SDS011;50274;45.640;11.756;2023-11-22T11:15:09;4.63;;;1.63;;
63016;SDS011;50274;45.640;11.756;2023-11-22T11:17:36;4.78;;;1.90;;
63016;SDS011;50274;45.640;11.756;2023-11-22T11:20:05;4.57;;;1.67;;
63016;SDS011;50274;45.640;11.756;2023-11-22T11:22:32;5.23;;;2.13;;
63016;SDS011;50274;45.640;11.756;2023-11-22T11:25:04;6.15;;;1.88;;
63016;SDS011;50274;45.640;11.756;2023-11-22T11:27:34;5.10;;;1.55;;
63016;SDS011;50274;45.640;11.756;2023-11-22T11:30:49;3.83;;;1.38;;
63016;SDS011;50274;45.640;11.756;2023-11-22T11:32:58;5.28;;;1.60;;
63016;SDS011;50274;45.640;11.756;2023-11-22T11:35:37;4.07;;;1.40;;
63016;SDS011;50274;45.640;11.756;2023-11-22T11:38:03;4.25;;;1.40;;
63016;SDS011;50274;45.640;11.756;2023-11-22T11:40:33;5.50;;;1.50;;
63016;SDS011;50274;45.640;11.756;2023-11-22T11:43:01;4.00;;;1.27;;
63016;SDS011;50274;45.640;11.756;2023-11-22T11:45:27;4.30;;;1.40;;
63016;SDS011;50274;45.640;11.756;2023-11-22T11:47:54;4.80;;;1.90;;
63016;SDS011;50274;45.640;11.756;2023-11-22T11:50:20;4.70;;;1.80;;
63016;SDS011;50274;45.640;11.756;2023-11-22T11:52:49;4.73;;;1.73;;
63016;SDS011;50274;45.640;11.756;2023-11-22T11:55:15;4.88;;;1.85;;
63016;SDS011;50274;45.640;11.756;2023-11-22T11:57:41;4.15;;;1.70;;
63016;SDS011;50274;45.640;11.756;2023-11-22T12:00:07;4.50;;;1.70;;
63016;SDS011;50274;45.640;11.756;2023-11-22T12:02:35;5.53;;;1.63;;
63016;SDS011;50274;45.640;11.756;2023-11-22T12:05:00;5.40;;;1.90;;
63016;SDS011;50274;45.640;11.756;2023-11-22T12:07:33;4.90;;;1.70;;
63016;SDS011;50274;45.640;11.756;2023-11-22T12:10:00;3.90;;;1.30;;
63016;SDS011;50274;45.640;11.756;2023-11-22T12:12:26;5.83;;;1.90;;
63016;SDS011;50274;45.640;11.756;2023-11-22T12:14:54;4.32;;;1.50;;
63016;SDS011;50274;45.640;11.756;2023-11-22T12:17:21;5.20;;;1.88;;
63016;SDS011;50274;45.640;11.756;2023-11-22T12:19:47;3.50;;;1.15;;
63016;SDS011;50274;45.640;11.756;2023-11-22T12:22:14;4.47;;;1.50;;
63016;SDS011;50274;45.640;11.756;2023-11-22T12:24:41;5.07;;;1.40;;
63016;SDS011;50274;45.640;11.756;2023-11-22T12:27:10;4.70;;;1.38;;
63016;SDS011;50274;45.640;11.756;2023-11-22T12:29:36;5.00;;;2.05;;
63016;SDS011;50274;45.640;11.756;2023-11-22T12:32:02;4.70;;;2.10;;
63016;SDS011;50274;45.640;11.756;2023-11-22T12:34:28;3.83;;;1.50;;
63016;SDS011;50274;45.640;11.756;2023-11-22T12:36:55;4.30;;;1.58;;
63016;SDS011;50274;45.640;11.756;2023-11-22T12:39:21;4.53;;;1.83;;
63016;SDS011;50274;45.640;11.756;2023-11-22T12:41:52;4.15;;;1.38;;
63016;SDS011;50274;45.640;11.756;2023-11-22T12:44:18;4.07;;;1.42;;
63016;SDS011;50274;45.640;11.756;2023-11-22T12:46:48;4.37;;;1.23;;
63016;SDS011;50274;45.640;11.756;2023-11-22T12:49:22;4.28;;;1.30;;
63016;SDS011;50274;45.640;11.756;2023-11-22T12:51:49;3.90;;;1.30;;
63016;SDS011;50274;45.640;11.756;2023-11-22T12:54:16;3.65;;;1.20;;
63016;SDS011;50274;45.640;11.756;2023-11-22T12:56:45;3.65;;;1.40;;
63016;SDS011;50274;45.640;11.756;2023-11-22T12:59:10;3.90;;;1.50;;
63016;SDS011;50274;45.640;11.756;2023-11-22T13:01:37;4.28;;;1.20;;
63016;SDS011;50274;45.640;11.756;2023-11-22T13:04:03;4.07;;;1.40;;
63016;SDS011;50274;45.640;11.756;2023-11-22T13:06:29;4.05;;;1.33;;
63016;SDS011;50274;45.640;11.756;2023-11-22T13:08:55;3.77;;;1.30;;
63016;SDS011;50274;45.640;11.756;2023-11-22T13:11:21;3.50;;;1.30;;
63016;SDS011;50274;45.640;11.756;2023-11-22T13:13:47;3.97;;;1.60;;
63016;SDS011;50274;45.640;11.756;2023-11-22T13:16:13;4.80;;;1.60;;
63016;SDS011;50274;45.640;11.756;2023-11-22T13:18:41;4.63;;;1.58;;
63016;SDS011;50274;45.640;11.756;2023-11-22T13:21:07;4.82;;;1.10;;
63016;SDS011;50274;45.640;11.756;2023-11-22T13:23:33;6.50;;;1.50;;
63016;SDS011;50274;45.640;11.756;2023-11-22T13:25:59;4.33;;;1.40;;
63016;SDS011;50274;45.640;11.756;2023-11-22T13:28:26;4.57;;;1.10;;
63016;SDS011;50274;45.640;11.756;2023-11-22T13:30:52;3.90;;;1.30;;
63016;SDS011;50274;45.640;11.756;2023-11-22T13:33:19;4.03;;;1.33;;
63016;SDS011;50274;45.640;11.756;2023-11-22T13:35:45;5.13;;;1.60;;
63016;SDS011;50274;45.640;11.756;2023-11-22T13:38:12;4.45;;;1.50;;
63016;SDS011;50274;45.640;11.756;2023-11-22T13:40:38;5.93;;;1.58;;
63016;SDS011;50274;45.640;11.756;2023-11-22T13:43:05;3.95;;;1.23;;
63016;SDS011;50274;45.640;11.756;2023-11-22T13:45:32;3.97;;;1.07;;
63016;SDS011;50274;45.640;11.756;2023-11-22T13:48:03;4.25;;;1.27;;
63016;SDS011;50274;45.640;11.756;2023-11-22T13:50:31;4.60;;;1.27;;
63016;SDS011;50274;45.640;11.756;2023-11-22T13:52:58;4.38;;;1.40;;
63016;SDS011;50274;45.640;11.756;2023-11-22T13:55:24;4.70;;;1.50;;
63016;SDS011;50274;45.640;11.756;2023-11-22T13:57:51;3.70;;;1.23;;
63016;SDS011;50274;45.640;11.756;2023-11-22T14:00:20;4.30;;;1.30;;
63016;SDS011;50274;45.640;11.756;2023-11-22T14:02:52;3.60;;;1.40;;
63016;SDS011;50274;45.640;11.756;2023-11-22T14:05:25;3.60;;;1.05;;
63016;SDS011;50274;45.640;11.756;2023-11-22T14:07:54;4.13;;;1.40;;
63016;SDS011;50274;45.640;11.756;2023-11-22T14:10:20;5.03;;;1.77;;
63016;SDS011;50274;45.640;11.756;2023-11-22T14:12:47;5.03;;;1.60;;
63016;SDS011;50274;45.640;11.756;2023-11-22T14:15:14;4.40;;;1.58;;
63016;SDS011;50274;45.640;11.756;2023-11-22T14:17:40;4.68;;;1.80;;
63016;SDS011;50274;45.640;11.756;2023-11-22T14:22:37;4.40;;;1.65;;
63016;SDS011;50274;45.640;11.756;2023-11-22T14:25:04;9.32;;;1.77;;
63016;SDS011;50274;45.640;11.756;2023-11-22T14:27:36;5.78;;;2.00;;
63016;SDS011;50274;45.640;11.756;2023-11-22T14:30:03;8.60;;;1.80;;
63016;SDS011;50274;45.640;11.756;2023-11-22T14:32:33;3.80;;;1.53;;
63016;SDS011;50274;45.640;11.756;2023-11-22T14:35:03;5.80;;;1.65;;
63016;SDS011;50274;45.640;11.756;2023-11-22T14:37:29;5.03;;;1.63;;